sensor_id;sensor_type;location;lat;lon;timestamp;P1;durP1;ratioP1;P2;durP2;ratioP2
57561;SDS011;43397;51.530;5.974;2023-06-22T00:03:19;14.75;;;12.18;;
57561;SDS011;43397;51.530;5.974;2023-06-22T00:06:43;14.43;;;12.00;;
57561;SDS011;43397;51.530;5.974;2023-06-22T00:10:09;15.80;;;12.60;;
57561;SDS011;43397;51.530;5.974;2023-06-22T00:13:33;17.83;;;13.25;;
57561;SDS011;43397;51.530;5.974;2023-06-22T00:16:57;16.15;;;13.75;;
57561;SDS011;43397;51.530;5.974;2023-06-22T00:20:22;17.00;;;14.32;;
57561;SDS011;43397;51.530;5.974;2023-06-22T00:23:46;16.30;;;13.60;;
57561;SDS011;43397;51.530;5.974;2023-06-22T00:27:12;17.25;;;14.25;;
57561;SDS011;43397;51.530;5.974;2023-06-22T00:30:36;18.83;;;14.85;;
57561;SDS011;43397;51.530;5.974;2023-06-22T00:34:00;17.40;;;14.55;;
57561;SDS011;43397;51.530;5.974;2023-06-22T00:37:24;16.90;;;14.15;;
57561;SDS011;43397;51.530;5.974;2023-06-22T00:40:49;18.73;;;15.02;;
57561;SDS011;43397;51.530;5.974;2023-06-22T00:44:14;19.73;;;16.15;;
57561;SDS011;43397;51.530;5.974;2023-06-22T00:47:38;19.95;;;16.05;;
57561;SDS011;43397;51.530;5.974;2023-06-22T00:51:03;18.60;;;15.43;;
57561;SDS011;43397;51.530;5.974;2023-06-22T00:54:27;21.42;;;16.73;;
57561;SDS011;43397;51.530;5.974;2023-06-22T00:57:52;20.42;;;16.98;;
57561;SDS011;43397;51.530;5.974;2023-06-22T01:01:18;20.58;;;17.15;;
57561;SDS011;43397;51.530;5.974;2023-06-22T01:04:42;23.55;;;18.70;;
57561;SDS011;43397;51.530;5.974;2023-06-22T01:08:09;23.95;;;18.60;;
57561;SDS011;43397;51.530;5.974;2023-06-22T01:11:41;21.27;;;17.83;;
57561;SDS011;43397;51.530;5.974;2023-06-22T01:15:10;21.25;;;18.20;;
57561;SDS011;43397;51.530;5.974;2023-06-22T01:18:41;21.58;;;18.17;;
57561;SDS011;43397;51.530;5.974;2023-06-22T01:22:09;24.10;;;19.15;;
57561;SDS011;43397;51.530;5.974;2023-06-22T01:25:37;20.48;;;17.95;;
57561;SDS011;43397;51.530;5.974;2023-06-22T01:29:10;24.75;;;19.13;;
57561;SDS011;43397;51.530;5.974;2023-06-22T01:32:36;22.20;;;18.10;;
57561;SDS011;43397;51.530;5.974;2023-06-22T01:36:04;24.95;;;17.63;;
57561;SDS011;43397;51.530;5.974;2023-06-22T01:39:29;22.80;;;18.50;;
57561;SDS011;43397;51.530;5.974;2023-06-22T01:42:55;22.42;;;19.40;;
57561;SDS011;43397;51.530;5.974;2023-06-22T01:46:22;21.15;;;18.17;;
57561;SDS011;43397;51.530;5.974;2023-06-22T01:49:47;22.58;;;18.10;;
57561;SDS011;43397;51.530;5.974;2023-06-22T01:53:12;21.52;;;17.88;;
57561;SDS011;43397;51.530;5.974;2023-06-22T01:56:36;26.65;;;18.35;;
57561;SDS011;43397;51.530;5.974;2023-06-22T02:00:01;22.42;;;18.55;;
57561;SDS011;43397;51.530;5.974;2023-06-22T02:03:37;23.63;;;18.88;;
57561;SDS011;43397;51.530;5.974;2023-06-22T02:07:09;23.58;;;18.90;;
57561;SDS011;43397;51.530;5.974;2023-06-22T02:10:38;21.27;;;17.70;;
57561;SDS011;43397;51.530;5.974;2023-06-22T02:14:05;22.45;;;18.10;;
57561;SDS011;43397;51.530;5.974;2023-06-22T02:17:31;25.05;;;19.35;;
57561;SDS011;43397;51.530;5.974;2023-06-22T02:20:57;24.35;;;19.92;;
57561;SDS011;43397;51.530;5.974;2023-06-22T02:24:21;23.27;;;19.50;;
57561;SDS011;43397;51.530;5.974;2023-06-22T02:27:45;25.63;;;20.33;;
57561;SDS011;43397;51.530;5.974;2023-06-22T02:31:10;23.02;;;19.83;;
57561;SDS011;43397;51.530;5.974;2023-06-22T02:34:34;24.73;;;22.05;;
57561;SDS011;43397;51.530;5.974;2023-06-22T02:38:00;30.20;;;22.45;;
57561;SDS011;43397;51.530;5.974;2023-06-22T02:41:24;27.73;;;22.73;;
57561;SDS011;43397;51.530;5.974;2023-06-22T02:44:48;27.60;;;22.38;;
57561;SDS011;43397;51.530;5.974;2023-06-22T02:48:12;27.30;;;22.20;;
57561;SDS011;43397;51.530;5.974;2023-06-22T02:51:38;30.98;;;22.15;;
57561;SDS011;43397;51.530;5.974;2023-06-22T02:55:04;30.10;;;23.40;;
57561;SDS011;43397;51.530;5.974;2023-06-22T02:58:28;29.05;;;22.65;;
57561;SDS011;43397;51.530;5.974;2023-06-22T03:01:52;27.55;;;22.08;;
57561;SDS011;43397;51.530;5.974;2023-06-22T03:05:16;28.60;;;22.85;;
57561;SDS011;43397;51.530;5.974;2023-06-22T03:08:41;25.50;;;22.58;;
57561;SDS011;43397;51.530;5.974;2023-06-22T03:12:07;26.63;;;21.80;;
57561;SDS011;43397;51.530;5.974;2023-06-22T03:15:31;27.73;;;22.27;;
57561;SDS011;43397;51.530;5.974;2023-06-22T03:18:55;27.85;;;22.55;;
57561;SDS011;43397;51.530;5.974;2023-06-22T03:22:19;29.00;;;23.92;;
57561;SDS011;43397;51.530;5.974;2023-06-22T03:25:43;25.80;;;22.65;;
57561;SDS011;43397;51.530;5.974;2023-06-22T03:29:09;32.05;;;23.83;;
57561;SDS011;43397;51.530;5.974;2023-06-22T03:32:34;32.75;;;23.83;;
57561;SDS011;43397;51.530;5.974;2023-06-22T03:35:58;31.58;;;25.30;;
57561;SDS011;43397;51.530;5.974;2023-06-22T03:39:22;32.17;;;25.67;;
57561;SDS011;43397;51.530;5.974;2023-06-22T03:42:46;29.92;;;24.23;;
57561;SDS011;43397;51.530;5.974;2023-06-22T03:46:12;28.83;;;23.40;;
57561;SDS011;43397;51.530;5.974;2023-06-22T03:49:36;29.75;;;23.92;;
57561;SDS011;43397;51.530;5.974;2023-06-22T03:53:01;30.98;;;23.10;;
57561;SDS011;43397;51.530;5.974;2023-06-22T03:56:25;32.88;;;24.50;;
57561;SDS011;43397;51.530;5.974;2023-06-22T03:59:49;27.23;;;22.83;;
57561;SDS011;43397;51.530;5.974;2023-06-22T04:03:15;28.70;;;21.13;;
57561;SDS011;43397;51.530;5.974;2023-06-22T04:06:39;27.60;;;21.52;;
57561;SDS011;43397;51.530;5.974;2023-06-22T04:10:04;26.70;;;21.35;;
57561;SDS011;43397;51.530;5.974;2023-06-22T04:13:28;27.70;;;21.90;;
57561;SDS011;43397;51.530;5.974;2023-06-22T04:16:52;27.13;;;22.13;;
57561;SDS011;43397;51.530;5.974;2023-06-22T04:20:17;29.00;;;22.63;;
57561;SDS011;43397;51.530;5.974;2023-06-22T04:23:42;25.55;;;22.02;;
57561;SDS011;43397;51.530;5.974;2023-06-22T04:27:06;27.65;;;22.58;;
57561;SDS011;43397;51.530;5.974;2023-06-22T04:30:32;30.17;;;22.52;;
57561;SDS011;43397;51.530;5.974;2023-06-22T04:33:56;29.00;;;22.55;;
57561;SDS011;43397;51.530;5.974;2023-06-22T04:37:22;26.83;;;23.00;;
57561;SDS011;43397;51.530;5.974;2023-06-22T04:40:46;26.45;;;22.85;;
57561;SDS011;43397;51.530;5.974;2023-06-22T04:44:10;29.30;;;23.00;;
57561;SDS011;43397;51.530;5.974;2023-06-22T04:47:34;29.13;;;21.80;;
57561;SDS011;43397;51.530;5.974;2023-06-22T04:50:59;29.60;;;23.13;;
57561;SDS011;43397;51.530;5.974;2023-06-22T04:54:24;25.80;;;22.75;;
57561;SDS011;43397;51.530;5.974;2023-06-22T04:57:49;27.52;;;22.42;;
57561;SDS011;43397;51.530;5.974;2023-06-22T05:01:13;27.55;;;23.10;;
57561;SDS011;43397;51.530;5.974;2023-06-22T05:04:37;27.02;;;24.02;;
57561;SDS011;43397;51.530;5.974;2023-06-22T05:08:01;28.40;;;22.67;;
57561;SDS011;43397;51.530;5.974;2023-06-22T05:11:27;27.25;;;23.90;;
57561;SDS011;43397;51.530;5.974;2023-06-22T05:14:52;28.88;;;23.38;;
57561;SDS011;43397;51.530;5.974;2023-06-22T05:18:16;28.00;;;23.75;;
57561;SDS011;43397;51.530;5.974;2023-06-22T05:21:41;26.88;;;23.95;;
57561;SDS011;43397;51.530;5.974;2023-06-22T05:25:07;25.58;;;21.98;;
57561;SDS011;43397;51.530;5.974;2023-06-22T05:28:34;28.88;;;24.40;;
57561;SDS011;43397;51.530;5.974;2023-06-22T05:31:58;28.20;;;22.77;;
57561;SDS011;43397;51.530;5.974;2023-06-22T05:35:22;26.50;;;23.45;;
57561;SDS011;43397;51.530;5.974;2023-06-22T05:38:46;25.50;;;22.55;;
57561;SDS011;43397;51.530;5.974;2023-06-22T05:42:11;24.85;;;22.05;;
57561;SDS011;43397;51.530;5.974;2023-06-22T05:45:36;25.75;;;22.73;;
57561;SDS011;43397;51.530;5.974;2023-06-22T05:49:00;28.00;;;24.20;;
57561;SDS011;43397;51.530;5.974;2023-06-22T05:52:24;29.80;;;24.15;;
57561;SDS011;43397;51.530;5.974;2023-06-22T05:55:49;26.33;;;22.63;;
57561;SDS011;43397;51.530;5.974;2023-06-22T05:59:13;27.23;;;23.52;;
57561;SDS011;43397;51.530;5.974;2023-06-22T06:02:39;29.90;;;24.30;;
57561;SDS011;43397;51.530;5.974;2023-06-22T06:06:03;26.85;;;23.70;;
57561;SDS011;43397;51.530;5.974;2023-06-22T06:09:28;28.05;;;24.63;;
57561;SDS011;43397;51.530;5.974;2023-06-22T06:12:52;28.10;;;25.15;;
57561;SDS011;43397;51.530;5.974;2023-06-22T06:16:16;30.80;;;26.13;;
57561;SDS011;43397;51.530;5.974;2023-06-22T06:19:41;29.92;;;26.15;;
57561;SDS011;43397;51.530;5.974;2023-06-22T06:23:06;31.63;;;26.80;;
57561;SDS011;43397;51.530;5.974;2023-06-22T06:26:30;28.75;;;25.70;;
57561;SDS011;43397;51.530;5.974;2023-06-22T06:29:54;30.05;;;26.88;;
57561;SDS011;43397;51.530;5.974;2023-06-22T06:33:18;29.02;;;25.88;;
57561;SDS011;43397;51.530;5.974;2023-06-22T06:36:44;28.42;;;25.40;;
57561;SDS011;43397;51.530;5.974;2023-06-22T06:40:09;28.00;;;25.02;;
57561;SDS011;43397;51.530;5.974;2023-06-22T06:43:34;29.25;;;25.30;;
57561;SDS011;43397;51.530;5.974;2023-06-22T06:46:58;28.92;;;25.80;;
57561;SDS011;43397;51.530;5.974;2023-06-22T06:50:22;29.55;;;26.05;;
57561;SDS011;43397;51.530;5.974;2023-06-22T06:53:48;31.30;;;25.63;;
57561;SDS011;43397;51.530;5.974;2023-06-22T06:57:12;30.08;;;26.33;;
57561;SDS011;43397;51.530;5.974;2023-06-22T07:00:36;28.58;;;25.52;;
57561;SDS011;43397;51.530;5.974;2023-06-22T07:04:00;38.22;;;27.13;;
57561;SDS011;43397;51.530;5.974;2023-06-22T07:07:24;29.63;;;26.35;;
57561;SDS011;43397;51.530;5.974;2023-06-22T07:10:50;28.30;;;25.25;;
57561;SDS011;43397;51.530;5.974;2023-06-22T07:14:15;29.13;;;25.95;;
57561;SDS011;43397;51.530;5.974;2023-06-22T07:17:39;29.75;;;25.17;;
57561;SDS011;43397;51.530;5.974;2023-06-22T07:21:04;29.63;;;26.25;;
57561;SDS011;43397;51.530;5.974;2023-06-22T07:24:29;28.50;;;25.38;;
57561;SDS011;43397;51.530;5.974;2023-06-22T07:27:58;28.58;;;25.50;;
57561;SDS011;43397;51.530;5.974;2023-06-22T07:31:23;29.65;;;25.40;;
57561;SDS011;43397;51.530;5.974;2023-06-22T07:34:47;28.13;;;24.95;;
57561;SDS011;43397;51.530;5.974;2023-06-22T07:38:11;27.05;;;24.15;;
57561;SDS011;43397;51.530;5.974;2023-06-22T07:41:35;28.50;;;24.35;;
57561;SDS011;43397;51.530;5.974;2023-06-22T07:45:01;26.67;;;23.85;;
57561;SDS011;43397;51.530;5.974;2023-06-22T07:48:25;29.17;;;24.02;;
57561;SDS011;43397;51.530;5.974;2023-06-22T07:51:50;26.30;;;23.25;;
57561;SDS011;43397;51.530;5.974;2023-06-22T07:55:14;27.23;;;24.42;;
57561;SDS011;43397;51.530;5.974;2023-06-22T07:58:38;27.42;;;24.33;;
57561;SDS011;43397;51.530;5.974;2023-06-22T08:02:04;26.38;;;23.58;;
57561;SDS011;43397;51.530;5.974;2023-06-22T08:05:28;27.10;;;24.20;;
57561;SDS011;43397;51.530;5.974;2023-06-22T08:08:54;28.33;;;24.35;;
57561;SDS011;43397;51.530;5.974;2023-06-22T08:12:18;26.23;;;23.35;;
57561;SDS011;43397;51.530;5.974;2023-06-22T08:15:43;27.52;;;24.48;;
57561;SDS011;43397;51.530;5.974;2023-06-22T08:19:08;25.27;;;21.77;;
57561;SDS011;43397;51.530;5.974;2023-06-22T08:22:33;22.75;;;20.35;;
57561;SDS011;43397;51.530;5.974;2023-06-22T08:25:57;24.40;;;21.80;;
57561;SDS011;43397;51.530;5.974;2023-06-22T08:29:21;26.02;;;23.23;;
57561;SDS011;43397;51.530;5.974;2023-06-22T08:32:46;25.25;;;22.55;;
57561;SDS011;43397;51.530;5.974;2023-06-22T08:36:11;29.10;;;22.70;;
57561;SDS011;43397;51.530;5.974;2023-06-22T08:39:35;26.63;;;23.80;;
57561;SDS011;43397;51.530;5.974;2023-06-22T08:43:00;27.80;;;23.30;;
57561;SDS011;43397;51.530;5.974;2023-06-22T08:46:24;25.75;;;22.95;;
57561;SDS011;43397;51.530;5.974;2023-06-22T08:49:48;23.58;;;21.05;;
57561;SDS011;43397;51.530;5.974;2023-06-22T08:53:14;27.35;;;23.10;;
57561;SDS011;43397;51.530;5.974;2023-06-22T08:56:38;24.90;;;22.20;;
57561;SDS011;43397;51.530;5.974;2023-06-22T09:00:03;25.40;;;22.67;;
57561;SDS011;43397;51.530;5.974;2023-06-22T09:03:27;25.27;;;22.58;;
57561;SDS011;43397;51.530;5.974;2023-06-22T09:06:51;24.48;;;21.98;;
57561;SDS011;43397;51.530;5.974;2023-06-22T09:10:17;25.00;;;21.88;;
57561;SDS011;43397;51.530;5.974;2023-06-22T09:13:41;25.10;;;22.45;;
57561;SDS011;43397;51.530;5.974;2023-06-22T09:17:05;25.45;;;22.75;;
57561;SDS011;43397;51.530;5.974;2023-06-22T09:20:29;24.95;;;22.23;;
57561;SDS011;43397;51.530;5.974;2023-06-22T09:23:53;25.40;;;22.67;;
57561;SDS011;43397;51.530;5.974;2023-06-22T09:27:19;24.98;;;22.45;;
57561;SDS011;43397;51.530;5.974;2023-06-22T09:30:43;26.13;;;23.38;;
57561;SDS011;43397;51.530;5.974;2023-06-22T09:34:08;26.40;;;23.63;;
57561;SDS011;43397;51.530;5.974;2023-06-22T09:37:32;25.50;;;22.80;;
57561;SDS011;43397;51.530;5.974;2023-06-22T09:40:57;25.77;;;23.33;;
57561;SDS011;43397;51.530;5.974;2023-06-22T09:44:24;26.70;;;23.80;;
57561;SDS011;43397;51.530;5.974;2023-06-22T09:47:48;26.42;;;23.60;;
57561;SDS011;43397;51.530;5.974;2023-06-22T09:51:12;26.65;;;23.85;;
57561;SDS011;43397;51.530;5.974;2023-06-22T09:54:36;28.63;;;24.73;;
57561;SDS011;43397;51.530;5.974;2023-06-22T09:58:01;26.80;;;23.63;;
57561;SDS011;43397;51.530;5.974;2023-06-22T10:01:26;26.40;;;23.77;;
57561;SDS011;43397;51.530;5.974;2023-06-22T10:04:50;26.60;;;23.73;;
57561;SDS011;43397;51.530;5.974;2023-06-22T10:08:14;27.55;;;23.90;;
57561;SDS011;43397;51.530;5.974;2023-06-22T10:11:39;27.98;;;24.52;;
57561;SDS011;43397;51.530;5.974;2023-06-22T10:15:06;28.17;;;24.83;;
57561;SDS011;43397;51.530;5.974;2023-06-22T10:18:32;28.98;;;25.05;;
57561;SDS011;43397;51.530;5.974;2023-06-22T10:21:56;28.50;;;25.42;;
57561;SDS011;43397;51.530;5.974;2023-06-22T10:25:20;30.27;;;26.17;;
57561;SDS011;43397;51.530;5.974;2023-06-22T10:28:45;28.52;;;25.52;;
57561;SDS011;43397;51.530;5.974;2023-06-22T10:32:09;30.52;;;25.77;;
57561;SDS011;43397;51.530;5.974;2023-06-22T10:35:35;30.27;;;27.02;;
57561;SDS011;43397;51.530;5.974;2023-06-22T10:38:59;31.60;;;28.20;;
57561;SDS011;43397;51.530;5.974;2023-06-22T10:42:23;33.22;;;28.80;;
57561;SDS011;43397;51.530;5.974;2023-06-22T10:45:48;33.22;;;29.65;;
57561;SDS011;43397;51.530;5.974;2023-06-22T10:49:12;36.90;;;30.98;;
57561;SDS011;43397;51.530;5.974;2023-06-22T10:52:37;36.50;;;30.42;;
57561;SDS011;43397;51.530;5.974;2023-06-22T10:56:02;51.22;;;35.40;;
57561;SDS011;43397;51.530;5.974;2023-06-22T10:59:26;51.22;;;39.80;;
57561;SDS011;43397;51.530;5.974;2023-06-22T11:02:50;55.35;;;43.60;;
57561;SDS011;43397;51.530;5.974;2023-06-22T11:06:14;23.83;;;17.58;;
57561;SDS011;43397;51.530;5.974;2023-06-22T11:09:40;6.20;;;4.80;;
57561;SDS011;43397;51.530;5.974;2023-06-22T11:13:04;4.15;;;2.85;;
57561;SDS011;43397;51.530;5.974;2023-06-22T11:16:29;4.18;;;3.60;;
57561;SDS011;43397;51.530;5.974;2023-06-22T11:19:54;3.75;;;3.38;;
57561;SDS011;43397;51.530;5.974;2023-06-22T11:23:18;4.78;;;3.47;;
57561;SDS011;43397;51.530;5.974;2023-06-22T11:26:44;6.47;;;4.35;;
57561;SDS011;43397;51.530;5.974;2023-06-22T11:30:08;2.38;;;2.17;;
57561;SDS011;43397;51.530;5.974;2023-06-22T11:33:32;4.88;;;3.70;;
57561;SDS011;43397;51.530;5.974;2023-06-22T11:36:56;4.35;;;3.00;;
57561;SDS011;43397;51.530;5.974;2023-06-22T11:40:21;2.50;;;2.30;;
57561;SDS011;43397;51.530;5.974;2023-06-22T11:43:46;3.72;;;2.72;;
57561;SDS011;43397;51.530;5.974;2023-06-22T11:47:10;3.53;;;3.25;;
57561;SDS011;43397;51.530;5.974;2023-06-22T11:50:35;3.70;;;3.40;;
57561;SDS011;43397;51.530;5.974;2023-06-22T11:54:00;3.05;;;2.58;;
57561;SDS011;43397;51.530;5.974;2023-06-22T11:57:24;5.95;;;1.92;;
57561;SDS011;43397;51.530;5.974;2023-06-22T12:00:49;4.65;;;2.55;;
57561;SDS011;43397;51.530;5.974;2023-06-22T12:04:14;7.00;;;4.47;;
57561;SDS011;43397;51.530;5.974;2023-06-22T12:07:38;4.43;;;3.72;;
57561;SDS011;43397;51.530;5.974;2023-06-22T12:11:02;3.47;;;3.00;;
57561;SDS011;43397;51.530;5.974;2023-06-22T12:14:26;3.17;;;2.88;;
57561;SDS011;43397;51.530;5.974;2023-06-22T12:17:56;4.28;;;3.75;;
57561;SDS011;43397;51.530;5.974;2023-06-22T12:21:20;3.45;;;3.17;;
57561;SDS011;43397;51.530;5.974;2023-06-22T12:24:44;3.20;;;2.58;;
57561;SDS011;43397;51.530;5.974;2023-06-22T12:28:09;5.63;;;4.32;;
57561;SDS011;43397;51.530;5.974;2023-06-22T12:31:33;3.63;;;3.33;;
57561;SDS011;43397;51.530;5.974;2023-06-22T12:34:59;2.67;;;1.92;;
57561;SDS011;43397;51.530;5.974;2023-06-22T12:38:23;9.43;;;4.75;;
57561;SDS011;43397;51.530;5.974;2023-06-22T12:41:47;2.63;;;2.38;;
57561;SDS011;43397;51.530;5.974;2023-06-22T12:45:11;2.25;;;2.08;;
57561;SDS011;43397;51.530;5.974;2023-06-22T12:48:36;5.72;;;3.15;;
57561;SDS011;43397;51.530;5.974;2023-06-22T12:52:01;2.72;;;2.42;;
57561;SDS011;43397;51.530;5.974;2023-06-22T12:55:25;4.20;;;2.92;;
57561;SDS011;43397;51.530;5.974;2023-06-22T12:58:49;4.60;;;3.85;;
57561;SDS011;43397;51.530;5.974;2023-06-22T13:02:14;6.50;;;3.38;;
57561;SDS011;43397;51.530;5.974;2023-06-22T13:05:38;1.65;;;1.17;;
57561;SDS011;43397;51.530;5.974;2023-06-22T13:09:03;5.18;;;3.40;;
57561;SDS011;43397;51.530;5.974;2023-06-22T13:12:31;7.30;;;2.92;;
57561;SDS011;43397;51.530;5.974;2023-06-22T13:15:55;3.72;;;1.80;;
57561;SDS011;43397;51.530;5.974;2023-06-22T13:19:19;4.50;;;3.60;;
57561;SDS011;43397;51.530;5.974;2023-06-22T13:22:43;2.45;;;2.25;;
57561;SDS011;43397;51.530;5.974;2023-06-22T13:26:09;4.13;;;3.75;;
57561;SDS011;43397;51.530;5.974;2023-06-22T13:29:33;3.92;;;3.45;;
57561;SDS011;43397;51.530;5.974;2023-06-22T13:32:57;3.30;;;2.35;;
57561;SDS011;43397;51.530;5.974;2023-06-22T13:36:21;2.85;;;1.25;;
57561;SDS011;43397;51.530;5.974;2023-06-22T13:39:45;2.50;;;2.30;;
57561;SDS011;43397;51.530;5.974;2023-06-22T13:43:11;3.65;;;2.67;;
57561;SDS011;43397;51.530;5.974;2023-06-22T13:46:35;4.10;;;2.88;;
57561;SDS011;43397;51.530;5.974;2023-06-22T13:50:00;2.63;;;2.03;;
57561;SDS011;43397;51.530;5.974;2023-06-22T13:53:24;3.05;;;2.75;;
57561;SDS011;43397;51.530;5.974;2023-06-22T13:56:48;3.22;;;2.85;;
57561;SDS011;43397;51.530;5.974;2023-06-22T14:00:14;5.97;;;4.50;;
57561;SDS011;43397;51.530;5.974;2023-06-22T14:03:39;2.10;;;1.85;;
57561;SDS011;43397;51.530;5.974;2023-06-22T14:07:03;1.73;;;1.60;;
57561;SDS011;43397;51.530;5.974;2023-06-22T14:10:28;2.60;;;2.35;;
57561;SDS011;43397;51.530;5.974;2023-06-22T14:13:52;6.70;;;4.10;;
57561;SDS011;43397;51.530;5.974;2023-06-22T14:17:17;1.98;;;1.55;;
57561;SDS011;43397;51.530;5.974;2023-06-22T14:20:42;3.72;;;3.38;;
57561;SDS011;43397;51.530;5.974;2023-06-22T14:24:06;2.92;;;2.13;;
57561;SDS011;43397;51.530;5.974;2023-06-22T14:27:30;5.43;;;3.15;;
57561;SDS011;43397;51.530;5.974;2023-06-22T14:30:55;4.13;;;2.85;;
57561;SDS011;43397;51.530;5.974;2023-06-22T14:34:20;3.17;;;2.60;;
57561;SDS011;43397;51.530;5.974;2023-06-22T14:37:44;3.45;;;3.15;;
57561;SDS011;43397;51.530;5.974;2023-06-22T14:41:08;3.85;;;3.53;;
57561;SDS011;43397;51.530;5.974;2023-06-22T14:44:33;7.90;;;3.60;;
57561;SDS011;43397;51.530;5.974;2023-06-22T14:47:57;5.78;;;3.35;;
57561;SDS011;43397;51.530;5.974;2023-06-22T14:51:23;3.45;;;3.15;;
57561;SDS011;43397;51.530;5.974;2023-06-22T14:54:47;3.63;;;2.92;;
57561;SDS011;43397;51.530;5.974;2023-06-22T14:58:11;5.13;;;3.75;;
57561;SDS011;43397;51.530;5.974;2023-06-22T15:01:35;4.95;;;4.00;;
57561;SDS011;43397;51.530;5.974;2023-06-22T15:05:00;4.90;;;4.15;;
57561;SDS011;43397;51.530;5.974;2023-06-22T15:08:25;5.18;;;4.13;;
57561;SDS011;43397;51.530;5.974;2023-06-22T15:11:49;4.38;;;4.00;;
57561;SDS011;43397;51.530;5.974;2023-06-22T15:15:13;8.70;;;4.50;;
57561;SDS011;43397;51.530;5.974;2023-06-22T15:18:38;3.55;;;3.25;;
57561;SDS011;43397;51.530;5.974;2023-06-22T15:22:02;9.52;;;6.60;;
57561;SDS011;43397;51.530;5.974;2023-06-22T15:25:28;3.63;;;3.28;;
57561;SDS011;43397;51.530;5.974;2023-06-22T15:28:52;4.30;;;3.90;;
57561;SDS011;43397;51.530;5.974;2023-06-22T15:32:16;4.63;;;4.22;;
57561;SDS011;43397;51.530;5.974;2023-06-22T15:35:44;7.70;;;2.45;;
57561;SDS011;43397;51.530;5.974;2023-06-22T15:39:08;3.92;;;3.55;;
57561;SDS011;43397;51.530;5.974;2023-06-22T15:42:34;5.22;;;3.70;;
57561;SDS011;43397;51.530;5.974;2023-06-22T15:45:58;3.47;;;3.17;;
57561;SDS011;43397;51.530;5.974;2023-06-22T15:48:24;8.70;;;6.68;;
57561;SDS011;43397;51.530;5.974;2023-06-22T15:51:48;3.10;;;2.80;;
57561;SDS011;43397;51.530;5.974;2023-06-22T15:55:12;5.20;;;4.40;;
57561;SDS011;43397;51.530;5.974;2023-06-22T15:57:40;4.53;;;4.10;;
57561;SDS011;43397;51.530;5.974;2023-06-22T16:00:06;6.78;;;4.85;;
57561;SDS011;43397;51.530;5.974;2023-06-22T16:02:32;5.40;;;4.90;;
57561;SDS011;43397;51.530;5.974;2023-06-22T16:04:58;4.22;;;3.25;;
57561;SDS011;43397;51.530;5.974;2023-06-22T16:07:24;5.85;;;4.00;;
57561;SDS011;43397;51.530;5.974;2023-06-22T16:09:49;4.85;;;3.35;;
57561;SDS011;43397;51.530;5.974;2023-06-22T16:12:15;3.33;;;2.35;;
57561;SDS011;43397;51.530;5.974;2023-06-22T16:14:42;2.72;;;2.38;;
57561;SDS011;43397;51.530;5.974;2023-06-22T16:17:08;6.05;;;3.70;;
57561;SDS011;43397;51.530;5.974;2023-06-22T16:19:34;5.68;;;2.95;;
57561;SDS011;43397;51.530;5.974;2023-06-22T16:21:59;5.10;;;4.70;;
57561;SDS011;43397;51.530;5.974;2023-06-22T16:24:25;3.15;;;2.88;;
57561;SDS011;43397;51.530;5.974;2023-06-22T16:26:51;2.25;;;2.05;;
57561;SDS011;43397;51.530;5.974;2023-06-22T16:29:16;4.35;;;3.67;;
57561;SDS011;43397;51.530;5.974;2023-06-22T16:31:43;3.58;;;2.75;;
57561;SDS011;43397;51.530;5.974;2023-06-22T16:34:09;3.70;;;2.65;;
57561;SDS011;43397;51.530;5.974;2023-06-22T16:36:34;3.58;;;3.28;;
57561;SDS011;43397;51.530;5.974;2023-06-22T16:39:00;5.03;;;3.30;;
57561;SDS011;43397;51.530;5.974;2023-06-22T16:41:26;2.05;;;1.67;;
57561;SDS011;43397;51.530;5.974;2023-06-22T16:43:51;3.97;;;2.58;;
57561;SDS011;43397;51.530;5.974;2023-06-22T16:46:17;4.03;;;2.22;;
57561;SDS011;43397;51.530;5.974;2023-06-22T16:48:49;1.80;;;1.60;;
57561;SDS011;43397;51.530;5.974;2023-06-22T16:51:15;5.60;;;2.60;;
57561;SDS011;43397;51.530;5.974;2023-06-22T16:53:40;3.63;;;2.83;;
57561;SDS011;43397;51.530;5.974;2023-06-22T16:56:07;3.67;;;3.13;;
57561;SDS011;43397;51.530;5.974;2023-06-22T16:58:32;4.85;;;4.45;;
57561;SDS011;43397;51.530;5.974;2023-06-22T17:01:00;4.05;;;3.75;;
57561;SDS011;43397;51.530;5.974;2023-06-22T17:03:27;4.22;;;3.90;;
57561;SDS011;43397;51.530;5.974;2023-06-22T17:05:56;2.88;;;2.53;;
57561;SDS011;43397;51.530;5.974;2023-06-22T17:08:22;3.92;;;3.63;;
57561;SDS011;43397;51.530;5.974;2023-06-22T17:10:50;2.80;;;2.22;;
57561;SDS011;43397;51.530;5.974;2023-06-22T17:13:17;3.53;;;3.22;;
57561;SDS011;43397;51.530;5.974;2023-06-22T17:15:43;3.22;;;2.95;;
57561;SDS011;43397;51.530;5.974;2023-06-22T17:18:08;4.47;;;2.80;;
57561;SDS011;43397;51.530;5.974;2023-06-22T17:20:34;4.13;;;2.95;;
57561;SDS011;43397;51.530;5.974;2023-06-22T17:23:02;5.43;;;3.65;;
57561;SDS011;43397;51.530;5.974;2023-06-22T17:25:28;3.65;;;3.03;;
57561;SDS011;43397;51.530;5.974;2023-06-22T17:27:57;2.53;;;2.28;;
57561;SDS011;43397;51.530;5.974;2023-06-22T17:30:24;2.83;;;2.50;;
57561;SDS011;43397;51.530;5.974;2023-06-22T17:33:37;3.17;;;2.78;;
57561;SDS011;43397;51.530;5.974;2023-06-22T17:36:23;7.95;;;2.08;;
57561;SDS011;43397;51.530;5.974;2023-06-22T17:38:52;2.30;;;2.10;;
57561;SDS011;43397;51.530;5.974;2023-06-22T17:41:28;1.73;;;1.63;;
57561;SDS011;43397;51.530;5.974;2023-06-22T17:43:57;3.05;;;2.58;;
57561;SDS011;43397;51.530;5.974;2023-06-22T17:46:22;8.90;;;5.85;;
57561;SDS011;43397;51.530;5.974;2023-06-22T17:49:30;2.50;;;1.63;;
57561;SDS011;43397;51.530;5.974;2023-06-22T17:51:56;4.60;;;4.20;;
57561;SDS011;43397;51.530;5.974;2023-06-22T17:54:23;3.13;;;2.90;;
57561;SDS011;43397;51.530;5.974;2023-06-22T17:56:54;2.15;;;1.58;;
57561;SDS011;43397;51.530;5.974;2023-06-22T17:59:20;2.80;;;1.98;;
57561;SDS011;43397;51.530;5.974;2023-06-22T18:02:24;2.65;;;2.45;;
57561;SDS011;43397;51.530;5.974;2023-06-22T18:05:28;6.20;;;3.60;;
57561;SDS011;43397;51.530;5.974;2023-06-22T18:07:54;1.60;;;1.30;;
57561;SDS011;43397;51.530;5.974;2023-06-22T18:11:23;3.83;;;3.42;;
57561;SDS011;43397;51.530;5.974;2023-06-22T18:14:48;7.25;;;2.78;;
57561;SDS011;43397;51.530;5.974;2023-06-22T18:18:14;3.58;;;3.28;;
57561;SDS011;43397;51.530;5.974;2023-06-22T18:21:38;2.80;;;2.42;;
57561;SDS011;43397;51.530;5.974;2023-06-22T18:24:25;2.72;;;2.53;;
57561;SDS011;43397;51.530;5.974;2023-06-22T18:26:53;4.30;;;3.85;;
57561;SDS011;43397;51.530;5.974;2023-06-22T18:30:19;4.00;;;2.42;;
57561;SDS011;43397;51.530;5.974;2023-06-22T18:33:38;4.28;;;3.10;;
57561;SDS011;43397;51.530;5.974;2023-06-22T18:36:57;2.65;;;2.25;;
57561;SDS011;43397;51.530;5.974;2023-06-22T18:40:21;3.95;;;3.65;;
57561;SDS011;43397;51.530;5.974;2023-06-22T18:43:47;8.05;;;3.60;;
57561;SDS011;43397;51.530;5.974;2023-06-22T18:47:19;3.65;;;2.53;;
57561;SDS011;43397;51.530;5.974;2023-06-22T18:50:49;6.00;;;4.97;;
57561;SDS011;43397;51.530;5.974;2023-06-22T18:54:17;4.05;;;2.80;;
57561;SDS011;43397;51.530;5.974;2023-06-22T18:57:36;7.28;;;3.85;;
57561;SDS011;43397;51.530;5.974;2023-06-22T19:01:15;3.40;;;3.10;;
57561;SDS011;43397;51.530;5.974;2023-06-22T19:03:48;2.90;;;2.08;;
57561;SDS011;43397;51.530;5.974;2023-06-22T19:09:15;9.48;;;6.60;;
57561;SDS011;43397;51.530;5.974;2023-06-22T19:11:40;4.57;;;4.15;;
57561;SDS011;43397;51.530;5.974;2023-06-22T19:14:06;3.50;;;3.20;;
57561;SDS011;43397;51.530;5.974;2023-06-22T19:16:33;4.47;;;3.72;;
57561;SDS011;43397;51.530;5.974;2023-06-22T19:18:59;5.93;;;5.53;;
57561;SDS011;43397;51.530;5.974;2023-06-22T19:21:37;4.20;;;2.60;;